Detall de PIREP

Printer-friendly versionPDF version

[2015/03/01 07:14:00]
Flight IATA:CT2112
Pilot Number:041
Company ICAO:CAT
Aircraft Type:BE58/A
PAX:2
Departing Airport: LEVC
Destination Airport: LEZL
Alternate Airport:LEMG
Online: VATSIM
Route:ASTRO B28 VIBAS
Flight Level:FL120
No Slew and time accel
No pause
Crash detect
Detect pilot in Cockpit between each 30 and 45 minutes
07:14 Zero fuel Weight: 4591 Lbs, Fuel Weight: 850 Lbs
07:14 VATSIM:LEVC 010700Z 26008KT CAVOK 12/06 Q1021 NOSIG
07:14 VATSIM:LEZL 010700Z 15002KT CAVOK 07/06 Q1026 NOSIG
07:14 VOICE CATALONIAN
07:15 Parking Brakes off
07:18 Take-off
07:18 Take off Weight: 5439 Lbs
07:18 Wind: 290º @ 003 Knots Heading: 294º
07:18 POS N39º 29´ 15´´ W000º 28´ 37´´
07:18 Gear Up: 111 Knots
07:18 Flaps:1 at 111 Knots
07:19 Flaps:0 at 123 Knots
07:30 TOC
07:30 Fuel Weight: 803 Lb
07:33 Wind:285º@012 Knots Heading: 234º Ground Speed: 192 Knots Altitude 12260 ft
07:48 Wind:282º@005 Knots Heading: 233º Ground Speed: 198 Knots Altitude 12319 ft
08:03 Wind:282º@005 Knots Heading: 227º Ground Speed: 204 Knots Altitude 12211 ft
08:18 Wind:245º@005 Knots Heading: 226º Ground Speed: 198 Knots Altitude 12194 ft
08:33 Wind:266º@004 Knots Heading: 270º Ground Speed: 199 Knots Altitude 12283 ft
08:40 TOD
08:40 Fuel Weight: 556 Lb
08:48 Wind:335º@001 Knots Heading: 270º Ground Speed: 177 Knots Altitude 4986 ft
08:52 Gear Down: 148 Knots
08:52 Flaps:1 at 140 Knots
08:52 Flaps:2 at 131 Knots
08:54 TouchDown:Rate -174 ft/min Speed: 96 Knots
08:54 Flaps:1 at 82 Knots
08:54 Flaps:0 at 69 Knots
08:54 VATSIM:LEZL 010830Z 00000KT CAVOK 11/10 Q1027 NOSIG
08:54 Land
08:54 Wind:139º@001 Knots
08:54 Heading: 270º
08:54 Flight Duration: 01:36
08:54 Landing Weight: 5117 Lbs
08:54 POS N37º 25´ 04´´ W005º 52´ 58´´
08:56 Parking brakeson
08:56 Block to Block Duration: 01:41
08:56 Final Fuel: 524 Lbls
08:56 Spent Fuel: 326 Lbls
08:56 Flight Length: 305 NM
08:56 TOD Land Length: 42 NM

Exportar CSV

Powered by Drupal - Modified by Danger4k